Las Vegas, NM

6:57 PM MST on December 25, 2014 (GMT -0700)
Las Vegas Municipal | Change Station
CLOSE
Current Station
Airport
Location: Las Vegas,
Elevation: 6877 ft
Nearby Weather Stations
Active Advisory: Winter Weather Advisory

Elev 6877 ft 35.65 °N, 105.14 °W | Updated 4 minutes ago

Partly Cloudy
Partly Cloudy
30 °F
Feels Like 21 °F
N
10
Wind Variable Wind from SSE

Today
High -- | Low -- °F
--% Chance of Precip.
Yesterday
High -- | Low -- °F
Precip. -- in
7:08 AM 4:53 PM
Waxing Crescent, 21% visible
Pressure 29.57 in
Visibility 10.0 miles
Clouds Few 8000 ft
Windchill 21 °F
Dew Point 17 °F
Humidity 59%
Rainfall 0.00 in
Snow Depth Not available.
UV 0 out of 12
Pollen 2.90 out of 12
Air Quality Not available.
Flu Activity Not available.
METAR KLVS 260153Z AUTO 15009KT 10SM FEW080 M01/M08 A2964 RMK AO2 SLP014 T10111083

More Conditions Fewer Conditions

Pressure 29.57 in
Visibility 10.0 miles
Clouds Few 8000 ft
Windchill 21 °F
Dew Point 17 °F
Humidity 59%
Rainfall 0.00 in
Snow Depth Not available.
UV 0 out of 12
Pollen 2.90 out of 12
Air Quality Not available.
Flu Activity Not available.
METAR KLVS 260153Z AUTO 15009KT 10SM FEW080 M01/M08 A2964 RMK AO2 SLP014 T10111083

More Conditions Fewer Conditions

10-Day Weather Forecast

Almanac

Astronomy

Dec. 25, 2014 Rise Set
Actual Time
Civil Twilight
Nautical Twilight
Astronomical Twilight
Moon
Length of Visible Light
Length of Day
Tomorrow will be .
, % of the Moon is Illuminated

Today's Extremes

State Highs State Lows

Community

WunderPhotos

Upload Photos

1,780,495 photos uploaded!

WunderBlogs® & News

Nearby

Air Quality

  Air Quality AQ Index Pollutant
Not available.

Snow Depth

Station Depth Elevation

Earthquake Activity

City Distance Mag. Time & Date
Minimum magnitude displayed is 2.5.

Coastal Water Temperatures

Place Temperature

Nearby Weather Stations